createdAt,value
2022-12-08T00:01:11.915Z,100313.53
2022-12-08T00:03:38.327Z,100309.25
2022-12-08T00:06:04.639Z,100310.28
2022-12-08T00:08:30.967Z,100304.94
2022-12-08T00:10:57.262Z,100308.41
2022-12-08T00:13:23.804Z,100298.75
2022-12-08T00:15:50.184Z,100304.94
2022-12-08T00:18:16.431Z,100304.94
2022-12-08T00:20:42.692Z,100304.09
2022-12-08T00:23:09.045Z,100298.75
2022-12-08T00:25:35.496Z,100295.25
2022-12-08T00:28:01.892Z,100284.56
2022-12-08T00:30:28.247Z,100290.94
2022-12-08T00:32:54.579Z,100274.13
2022-12-08T00:35:20.900Z,100282.13
2022-12-08T00:37:47.295Z,100274.31
2022-12-08T00:40:13.549Z,100272.69
2022-12-08T00:42:40.055Z,100270.59
2022-12-08T00:45:06.418Z,100273.28
2022-12-08T00:47:32.736Z,100268.16
2022-12-08T00:49:59.146Z,100267.34
2022-12-08T00:52:25.476Z,100281.50
2022-12-08T00:54:51.748Z,100270.25
2022-12-08T00:57:18.164Z,100272.91
2022-12-08T00:59:44.577Z,100271.88
2022-12-08T01:02:10.912Z,100268.38
2022-12-08T01:04:37.446Z,100267.56
2022-12-08T01:07:03.749Z,100268.38
2022-12-08T01:09:30.055Z,100275.59
2022-12-08T01:11:56.282Z,100274.75
2022-12-08T01:14:22.600Z,100276.59
2022-12-08T01:16:49.051Z,100273.13
2022-12-08T01:19:15.720Z,100274.75
2022-12-08T01:21:42.199Z,100282.78
2022-12-08T01:24:08.603Z,100287.53
2022-12-08T01:26:34.899Z,100282.97
2022-12-08T01:29:01.415Z,100287.53
2022-12-08T01:31:27.760Z,100292.03
2022-12-08T01:33:54.169Z,100291.00
2022-12-08T01:36:20.455Z,100280.53
2022-12-08T01:38:46.763Z,100276.22
2022-12-08T01:41:13.088Z,100278.91
2022-12-08T01:43:39.471Z,100279.72
2022-12-08T01:46:05.799Z,100277.25
2022-12-08T01:48:32.121Z,100276.22
2022-12-08T01:50:58.417Z,100269.25
2022-12-08T01:53:24.659Z,100264.94
2022-12-08T01:55:50.981Z,100260.41
2022-12-08T01:58:17.316Z,100259.59
2022-12-08T02:00:43.555Z,100257.94
2022-12-08T02:03:10.088Z,100252.59
2022-12-08T02:05:36.504Z,100242.72
2022-12-08T02:08:03.160Z,100251.78
2022-12-08T02:10:29.443Z,100244.56
2022-12-08T02:12:55.828Z,100246.66
2022-12-08T02:15:22.410Z,100239.69
2022-12-08T02:17:48.806Z,100237.81
2022-12-08T02:20:15.580Z,100235.97
2022-12-08T02:22:43.650Z,100242.34
2022-12-08T02:25:09.993Z,100243.16
2022-12-08T02:27:36.434Z,100242.34
2022-12-08T02:30:03.185Z,100240.69
2022-12-08T02:32:29.594Z,100239.69
2022-12-08T02:34:55.969Z,100232.94
2022-12-08T02:37:22.214Z,100238.03
2022-12-08T02:39:48.615Z,100227.34
2022-12-08T02:42:14.954Z,100228.38
2022-12-08T02:44:41.264Z,100217.69
2022-12-08T02:47:07.600Z,100219.56
2022-12-08T02:49:33.986Z,100208.03
2022-12-08T02:52:00.288Z,100213.38
2022-12-08T02:54:26.654Z,100209.09
2022-12-08T02:56:52.947Z,100205.38
2022-12-08T02:59:19.444Z,100210.72
2022-12-08T03:01:45.826Z,100206.19
2022-12-08T03:04:12.253Z,100205.59
2022-12-08T03:06:38.488Z,100201.88
2022-12-08T03:09:04.962Z,100202.69
2022-12-08T03:11:31.204Z,100202.69
2022-12-08T03:13:57.511Z,100195.94
2022-12-08T03:16:23.949Z,100189.56
2022-12-08T03:18:50.280Z,100192.44
2022-12-08T03:21:16.732Z,100189.75
2022-12-08T03:23:43.103Z,100189.75
2022-12-08T03:26:09.386Z,100184.41
2022-12-08T03:28:35.663Z,100187.09
2022-12-08T03:31:02.258Z,100187.09
2022-12-08T03:33:28.750Z,100182.78
2022-12-08T03:35:55.032Z,100172.09
2022-12-08T03:38:21.452Z,100175.59
2022-12-08T03:40:47.993Z,100168.38
2022-12-08T03:43:14.244Z,100165.94
2022-12-08T03:45:40.487Z,100163.25
2022-12-08T03:48:07.028Z,100159.78
2022-12-08T03:50:33.626Z,100152.81
2022-12-08T03:52:59.932Z,100151.16
2022-12-08T03:55:26.192Z,100153.59
2022-12-08T03:57:52.538Z,100145.00
2022-12-08T04:00:18.838Z,100148.47
2022-12-08T04:02:45.211Z,100140.47
2022-12-08T04:05:11.577Z,100131.66
2022-12-08T04:07:37.868Z,100132.66
2022-12-08T04:10:04.597Z,100124.66
2022-12-08T04:12:31.439Z,100122.81
2022-12-08T04:14:57.788Z,100114.22
2022-12-08T04:17:24.048Z,100118.50
2022-12-08T04:19:50.338Z,100114.22
2022-12-08T04:22:16.668Z,100108.88
2022-12-08T04:24:42.960Z,100104.31
2022-12-08T04:27:09.475Z,100103.53
2022-12-08T04:29:36.053Z,100100.03
2022-12-08T04:32:02.461Z,100098.19
2022-12-08T04:34:28.773Z,100108.88
2022-12-08T04:36:55.330Z,100097.56
2022-12-08T04:39:21.682Z,100103.72
2022-12-08T04:41:48.010Z,100094.88
2022-12-08T04:44:14.336Z,100097.34
2022-12-08T04:46:43.588Z,100097.56
2022-12-08T04:49:10.224Z,100108.25
2022-12-08T04:51:36.828Z,100096.50
2022-12-08T04:54:03.090Z,100106.41
2022-12-08T04:56:29.524Z,100093.25
2022-12-08T04:58:55.860Z,100091.41
2022-12-08T05:01:22.217Z,100098.59
2022-12-08T05:03:48.608Z,100100.44
2022-12-08T05:06:15.023Z,100091.41
2022-12-08T05:08:41.619Z,100096.75
2022-12-08T05:11:07.998Z,100093.25
2022-12-08T05:13:34.288Z,100094.31
2022-12-08T05:16:00.671Z,100095.31
2022-12-08T05:18:27.046Z,100089.75
2022-12-08T05:20:53.442Z,100091.03
2022-12-08T05:23:20.229Z,100085.69
2022-12-08T05:25:46.564Z,100087.56
2022-12-08T05:28:40.344Z,100084.88
2022-12-08T05:30:59.125Z,100089.41
2022-12-08T05:33:25.631Z,100091.03
2022-12-08T05:35:51.923Z,100078.72
2022-12-08T05:38:18.309Z,100076.88
2022-12-08T05:40:44.577Z,100081.38
2022-12-08T05:43:11.113Z,100077.09
2022-12-08T05:45:37.519Z,100080.75
2022-12-08T05:48:03.879Z,100079.75
2022-12-08T05:50:30.195Z,100085.91
2022-12-08T05:52:56.517Z,100086.09
2022-12-08T05:55:22.786Z,100077.28
2022-12-08T05:57:49.181Z,100080.19
2022-12-08T06:00:15.525Z,100074.63
2022-12-08T06:02:41.859Z,100073.78
2022-12-08T06:05:08.182Z,100079.13
2022-12-08T06:07:34.472Z,100074.63
2022-12-08T06:10:00.761Z,100079.13
2022-12-08T06:12:27.218Z,100079.34
2022-12-08T06:14:53.667Z,100070.53
2022-12-08T06:17:19.942Z,100077.72
2022-12-08T06:19:46.191Z,100077.72
2022-12-08T06:22:12.465Z,100078.78
2022-12-08T06:24:38.740Z,100075.06
2022-12-08T06:27:04.979Z,100080.63
2022-12-08T06:29:31.287Z,100077.94
2022-12-08T06:31:57.725Z,100080.63
2022-12-08T06:34:24.255Z,100082.28
2022-12-08T06:36:50.639Z,100071.81
2022-12-08T06:39:16.991Z,100082.28
2022-12-08T06:41:43.294Z,100073.66
2022-12-08T06:44:09.558Z,100079.00
2022-12-08T06:46:35.988Z,100079.00
2022-12-08T06:49:02.343Z,100075.28
2022-12-08T06:51:28.578Z,100073.66
2022-12-08T06:53:54.888Z,100075.50
2022-12-08T06:56:21.150Z,100085.97
2022-12-08T06:58:52.137Z,100081.44
2022-12-08T07:01:19.335Z,100080.03
2022-12-08T07:03:45.738Z,100077.38
2022-12-08T07:06:12.254Z,100086.19
2022-12-08T07:08:38.511Z,100089.88
2022-12-08T07:11:04.764Z,100087.22
2022-12-08T07:13:31.100Z,100092.56
2022-12-08T07:15:57.428Z,100083.75
2022-12-08T07:18:23.676Z,100088.03
2022-12-08T07:20:49.963Z,100087.22
2022-12-08T07:23:16.442Z,100090.94
2022-12-08T07:25:42.885Z,100093.59
2022-12-08T07:28:09.309Z,100092.78
2022-12-08T07:30:35.841Z,100087.66
2022-12-08T07:33:02.137Z,100097.31
2022-12-08T07:35:28.441Z,100086.84
2022-12-08T07:37:54.780Z,100100.22
2022-12-08T07:40:21.051Z,100101.00
2022-12-08T07:42:47.445Z,100105.56
2022-12-08T07:45:13.842Z,100097.75
2022-12-08T07:47:40.180Z,100102.25
2022-12-08T07:50:06.815Z,100099.59
2022-12-08T07:55:09.244Z,100081.72
2022-12-08T07:57:35.525Z,100085.22
2022-12-08T08:00:02.334Z,100083.56
2022-12-08T08:02:29.141Z,100081.13
2022-12-08T08:04:55.637Z,100089.38
2022-12-08T08:07:21.998Z,100095.72
2022-12-08T08:09:48.296Z,100095.72
2022-12-08T08:12:31.670Z,100092.25
2022-12-08T08:14:58.521Z,100095.97
2022-12-08T08:17:24.937Z,100104.78
2022-12-08T08:19:51.356Z,100097.81
2022-12-08T08:22:17.596Z,100101.31
2022-12-08T08:24:45.279Z,100098.84
2022-12-08T08:27:11.926Z,100097.22
2022-12-08T08:29:38.364Z,100098.03
2022-12-08T08:32:04.804Z,100096.19
2022-12-08T08:34:31.327Z,100094.56
2022-12-08T08:36:57.703Z,100085.72
2022-12-08T08:39:24.142Z,100097.44
2022-12-08T08:41:50.599Z,100099.28
2022-12-08T08:44:17.061Z,100094.97
2022-12-08T08:46:43.574Z,100100.91
2022-12-08T08:49:09.987Z,100103.78
2022-12-08T08:51:36.269Z,100103.00
2022-12-08T08:54:02.577Z,100103.78
2022-12-08T08:56:28.824Z,100101.13
2022-12-08T08:58:55.268Z,100097.66
2022-12-08T09:01:21.663Z,100106.47
2022-12-08T09:03:48.017Z,100098.69
2022-12-08T09:06:14.351Z,100101.38
2022-12-08T09:08:40.673Z,100101.59
2022-12-08T09:11:07.085Z,100101.38
2022-12-08T09:13:33.437Z,100100.53
2022-12-08T09:15:59.759Z,100101.38
2022-12-08T09:18:26.093Z,100099.91
2022-12-08T09:20:52.443Z,100097.88
2022-12-08T09:23:18.727Z,100102.59
2022-12-08T09:25:45.016Z,100105.88
2022-12-08T09:28:11.368Z,100105.06
2022-12-08T09:30:37.783Z,100100.53
2022-12-08T09:33:04.199Z,100093.56
2022-12-08T09:35:30.503Z,100102.38
2022-12-08T09:37:56.769Z,100098.09
2022-12-08T09:40:23.259Z,100086.56
2022-12-08T09:42:49.648Z,100084.72
2022-12-08T09:45:16.064Z,100079.38
2022-12-08T09:47:42.402Z,100075.09
2022-12-08T09:50:09.023Z,100081.22
2022-12-08T09:52:35.632Z,100075.09
2022-12-08T09:55:01.886Z,100067.09
2022-12-08T09:57:28.159Z,100056.41
2022-12-08T09:59:54.503Z,100057.44
2022-12-08T10:02:20.883Z,100051.28
2022-12-08T10:04:47.273Z,100053.13
2022-12-08T10:07:13.627Z,100051.28
2022-12-08T10:09:39.885Z,100055.78
2022-12-08T10:12:06.226Z,100066.25
2022-12-08T10:14:32.587Z,100053.13
2022-12-08T10:16:59.158Z,100044.31
2022-12-08T10:19:25.468Z,100054.97
2022-12-08T10:21:51.779Z,100051.28
2022-12-08T10:24:18.075Z,100038.13
2022-12-08T10:26:44.604Z,100035.47
2022-12-08T10:29:10.941Z,100029.09
2022-12-08T10:31:37.307Z,100028.28
2022-12-08T10:34:03.703Z,100030.94
2022-12-08T10:36:30.003Z,100030.34
2022-12-08T10:41:25.497Z,100028.50
2022-12-08T10:43:51.749Z,100030.13
2022-12-08T10:46:18.068Z,100021.53
2022-12-08T10:48:44.403Z,100019.66
2022-12-08T10:51:10.806Z,100022.53
2022-12-08T10:53:37.045Z,100020.91
2022-12-08T10:56:03.695Z,100023.38
2022-12-08T10:58:30.194Z,100013.75
2022-12-08T11:00:56.639Z,100022.53
2022-12-08T11:03:22.961Z,100018.88
2022-12-08T11:05:49.437Z,100015.38
2022-12-08T11:08:15.716Z,100017.22
2022-12-08T11:10:42.187Z,100013.53
2022-12-08T11:13:08.474Z,100016.19
2022-12-08T11:15:34.785Z,100013.53
2022-12-08T11:18:01.185Z,100012.69
2022-12-08T11:20:27.506Z,100014.53
2022-12-08T11:22:53.845Z,100010.25
2022-12-08T11:25:20.189Z,100004.69
2022-12-08T11:27:46.645Z,100005.72
2022-12-08T11:30:14.806Z,99994.22
2022-12-08T11:32:41.463Z,99995.84
2022-12-08T11:35:07.694Z,99996.09
2022-12-08T11:37:35.178Z,99989.72
2022-12-08T11:40:01.968Z,99999.56
2022-12-08T11:42:28.364Z,99991.75
2022-12-08T11:44:54.635Z,99987.25
2022-12-08T11:47:20.965Z,99987.25
2022-12-08T11:52:18.654Z,99978.41
2022-12-08T11:54:44.964Z,99979.47
2022-12-08T11:57:11.491Z,99982.97
2022-12-08T11:59:37.745Z,99982.97
2022-12-08T12:02:04.240Z,99988.50
2022-12-08T12:04:30.604Z,99982.97
2022-12-08T12:09:38.412Z,99979.69
2022-12-08T12:12:04.774Z,99975.97
2022-12-08T12:19:52.399Z,99976.78
2022-12-08T12:22:18.676Z,99977.00
2022-12-08T12:24:44.968Z,99977.00
2022-12-08T12:27:11.345Z,99971.66
2022-12-08T12:29:37.746Z,99971.66
2022-12-08T12:32:04.035Z,99973.53
2022-12-08T12:34:30.340Z,99971.66
2022-12-08T12:36:56.801Z,99970.03
2022-12-08T12:39:23.182Z,99962.03
2022-12-08T12:41:49.480Z,99959.38
2022-12-08T12:44:15.751Z,99956.69
2022-12-08T12:46:42.023Z,99962.03
2022-12-08T12:49:08.357Z,99961.19
2022-12-08T12:51:34.692Z,99963.88
2022-12-08T12:54:00.918Z,99967.56
2022-12-08T12:59:00.936Z,99965.75
2022-12-08T13:01:27.248Z,99961.41
2022-12-08T13:03:53.605Z,99965.75
2022-12-08T13:06:19.909Z,99962.03
2022-12-08T13:08:46.272Z,99959.38
2022-12-08T13:11:12.587Z,99961.81
2022-12-08T13:13:38.881Z,99956.47
2022-12-08T13:16:15.535Z,99959.16
2022-12-08T13:18:45.185Z,99953.81
2022-12-08T13:21:11.507Z,99955.44
2022-12-08T13:23:37.782Z,99953.59
2022-12-08T13:26:04.096Z,99954.59
2022-12-08T13:28:30.355Z,99948.47
2022-12-08T13:30:56.729Z,99962.59
2022-12-08T13:33:23.161Z,99951.94
2022-12-08T13:35:49.481Z,99957.88
2022-12-08T13:38:15.913Z,99948.81
2022-12-08T13:40:42.306Z,99955.22
2022-12-08T13:43:08.619Z,99960.56
2022-12-08T13:46:12.512Z,99957.06
2022-12-08T13:48:35.234Z,99959.72
2022-12-08T13:54:52.346Z,99959.72
2022-12-08T13:57:03.939Z,99958.09
2022-12-08T13:59:27.216Z,99960.97
2022-12-08T14:01:53.615Z,99962.41
2022-12-08T14:04:42.589Z,99966.09
2022-12-08T14:07:06.305Z,99958.31
2022-12-08T14:09:32.603Z,99959.16
2022-12-08T14:11:59.376Z,99958.09
2022-12-08T14:14:53.904Z,99959.16
2022-12-08T14:17:12.364Z,99960.97
2022-12-08T14:19:38.900Z,99966.31
2022-12-08T14:22:05.482Z,99961.81
2022-12-08T14:24:32.523Z,99971.66
2022-12-08T14:26:58.770Z,99968.19
2022-12-08T14:29:25.101Z,99963.06
2022-12-08T14:31:51.384Z,99963.88
2022-12-08T14:34:17.690Z,99967.56
2022-12-08T14:36:43.970Z,99967.56
2022-12-08T14:39:10.309Z,99969.84
2022-12-08T14:41:36.843Z,99975.63
2022-12-08T14:44:03.238Z,99967.25
2022-12-08T14:46:29.758Z,99962.72
2022-12-08T14:48:56.148Z,99965.16
2022-12-08T14:51:22.516Z,99966.00
2022-12-08T14:53:48.863Z,99967.41
2022-12-08T14:56:15.241Z,99963.69
2022-12-08T14:58:41.554Z,99965.31
2022-12-08T15:01:07.947Z,99967.78
2022-12-08T15:03:34.321Z,99962.44
2022-12-08T15:06:00.624Z,99958.53
2022-12-08T15:08:27.152Z,99962.19
2022-12-08T15:10:53.661Z,99962.94
2022-12-08T15:13:19.924Z,99967.59
2022-12-08T15:15:46.251Z,99974.31
2022-12-08T15:18:12.520Z,99970.50
2022-12-08T15:20:38.832Z,99978.09
2022-12-08T15:23:05.317Z,99977.19
2022-12-08T15:25:31.548Z,99976.28
2022-12-08T15:27:58.036Z,99975.53
2022-12-08T15:32:59.514Z,99975.81
2022-12-08T15:35:25.809Z,99975.97
2022-12-08T15:37:52.115Z,99981.47
2022-12-08T15:40:18.549Z,99992.88
2022-12-08T15:42:45.037Z,99986.63
2022-12-08T15:45:11.419Z,99985.50
2022-12-08T15:47:37.656Z,99988.28
2022-12-08T15:50:04.140Z,100002.06
2022-12-08T15:52:30.770Z,99998.91
2022-12-08T15:54:57.089Z,100002.75
2022-12-08T15:57:53.020Z,100002.09
2022-12-08T16:00:30.346Z,100004.81
2022-12-08T16:05:49.998Z,100013.25
2022-12-08T16:08:47.458Z,100006.97
2022-12-08T16:12:03.789Z,100005.47
2022-12-08T16:14:29.224Z,100007.81
2022-12-08T16:16:47.704Z,100010.38
2022-12-08T16:19:14.047Z,100005.97
2022-12-08T16:22:29.858Z,100010.06
2022-12-08T16:24:26.716Z,99998.41
2022-12-08T16:29:39.563Z,99998.28
2022-12-08T16:32:05.994Z,100007.84
2022-12-08T16:34:32.364Z,100002.59
2022-12-08T16:36:58.811Z,100005.63
2022-12-08T16:39:25.300Z,100010.06
2022-12-08T16:41:51.667Z,100006.66
2022-12-08T16:44:17.943Z,100005.59
2022-12-08T16:46:44.200Z,100010.28
2022-12-08T16:51:46.580Z,100008.56
2022-12-08T16:54:12.835Z,100015.09
2022-12-08T16:56:39.132Z,100009.22
2022-12-08T16:59:05.392Z,100005.63
2022-12-08T17:01:31.737Z,100014.22
2022-12-08T17:06:44.324Z,100011.66
2022-12-08T17:09:10.838Z,100010.97
2022-12-08T17:11:42.677Z,100012.56
2022-12-08T17:14:09.821Z,100015.63
2022-12-08T17:16:36.279Z,100019.34
2022-12-08T17:19:02.894Z,100021.53
2022-12-08T17:21:29.255Z,100023.16
2022-12-08T17:23:55.629Z,100024.00
2022-12-08T17:26:22.021Z,100026.91
2022-12-08T17:29:03.775Z,100032.28
2022-12-08T17:31:31.316Z,100023.16
2022-12-08T17:33:58.013Z,100031.81
2022-12-08T17:36:24.285Z,100030.75
2022-12-08T17:38:50.663Z,100040.09
2022-12-08T17:41:16.939Z,100043.69
2022-12-08T17:43:43.283Z,100036.13
2022-12-08T17:46:09.626Z,100033.75
2022-12-08T17:48:36.118Z,100040.50
2022-12-08T17:51:02.377Z,100044.03
2022-12-08T17:53:30.672Z,100047.31
2022-12-08T17:56:00.571Z,100040.28
2022-12-08T17:58:27.038Z,100042.72
2022-12-08T18:00:53.373Z,100040.06
2022-12-08T18:03:19.637Z,100040.88
2022-12-08T18:05:45.902Z,100042.28
2022-12-08T18:08:12.315Z,100044.72
2022-12-08T18:10:38.718Z,100033.16
2022-12-08T18:18:16.650Z,100039.72
2022-12-08T18:20:42.898Z,100041.25
2022-12-08T18:23:09.299Z,100048.22
2022-12-08T18:25:35.610Z,100054.44
2022-12-08T18:28:01.899Z,100050.44
2022-12-08T18:30:28.284Z,100050.69
2022-12-08T18:32:57.464Z,100052.53
2022-12-08T18:35:24.074Z,100047.31
2022-12-08T18:37:50.391Z,100047.63
2022-12-08T18:40:16.832Z,100050.31
2022-12-08T18:42:43.151Z,100050.09
2022-12-08T18:45:09.476Z,100048.78
2022-12-08T18:47:35.704Z,100050.09
2022-12-08T18:50:01.967Z,100054.16
2022-12-08T18:52:32.008Z,100060.91
2022-12-08T18:55:06.318Z,100053.66
2022-12-08T18:57:33.376Z,100048.88
2022-12-08T18:59:59.641Z,100047.38
2022-12-08T19:02:25.971Z,100056.22
2022-12-08T19:04:52.354Z,100058.66
2022-12-08T19:07:18.871Z,100067.84
2022-12-08T19:09:45.132Z,100065.19
2022-12-08T19:12:11.399Z,100063.56
2022-12-08T19:14:37.735Z,100063.56
2022-12-08T19:17:04.052Z,100066.84
2022-12-08T19:19:30.310Z,100068.44
2022-12-08T19:21:56.684Z,100074.38
2022-12-08T19:24:23.048Z,100074.38
2022-12-08T19:26:49.609Z,100069.38
2022-12-08T19:29:15.964Z,100071.47
2022-12-08T19:31:42.396Z,100071.78
2022-12-08T19:34:08.750Z,100073.44
2022-12-08T19:36:35.066Z,100079.84
2022-12-08T19:39:01.444Z,100072.16
2022-12-08T19:41:27.817Z,100082.06
2022-12-08T19:43:54.120Z,100082.88
2022-12-08T19:46:20.859Z,100077.75
2022-12-08T19:48:47.415Z,100083.13
2022-12-08T19:51:13.760Z,100086.63
2022-12-08T19:56:22.206Z,100081.59
2022-12-08T19:58:48.556Z,100081.34
2022-12-08T20:01:15.032Z,100093.47
2022-12-08T20:03:41.365Z,100096.41
2022-12-08T20:06:07.759Z,100093.00
2022-12-08T20:08:34.072Z,100100.66
2022-12-08T20:11:00.634Z,100096.00
2022-12-08T20:13:26.891Z,100090.50
2022-12-08T20:15:53.329Z,100091.50
2022-12-08T20:18:19.835Z,100095.75
2022-12-08T20:20:46.412Z,100091.38
2022-12-08T20:23:12.885Z,100093.47
2022-12-08T20:25:39.160Z,100101.50
2022-12-08T20:28:05.438Z,100095.19
2022-12-08T20:30:31.757Z,100108.56
2022-12-08T20:32:58.021Z,100103.59
2022-12-08T20:35:24.426Z,100109.72
2022-12-08T20:37:50.706Z,100107.19
2022-12-08T20:40:17.110Z,100116.44
2022-12-08T20:42:43.584Z,100114.97
2022-12-08T20:45:10.092Z,100123.13
2022-12-08T20:47:36.812Z,100116.72
2022-12-08T20:50:03.529Z,100116.25
2022-12-08T20:52:29.989Z,100110.69
2022-12-08T20:54:56.323Z,100116.84
2022-12-08T20:57:22.731Z,100118.81
2022-12-08T20:59:49.001Z,100113.44
2022-12-08T21:02:15.381Z,100124.75
2022-12-08T21:04:42.043Z,100130.47
2022-12-08T21:07:08.623Z,100133.72
2022-12-08T21:09:35.319Z,100131.34
2022-12-08T21:12:01.917Z,100132.72
2022-12-08T21:14:28.513Z,100131.66
2022-12-08T21:16:54.934Z,100133.03
2022-12-08T21:19:21.716Z,100134.84
2022-12-08T21:21:48.223Z,100130.47
2022-12-08T21:24:14.681Z,100137.34
2022-12-08T21:26:41.035Z,100131.00
2022-12-08T21:29:07.452Z,100132.56
2022-12-08T21:31:33.919Z,100133.78
2022-12-08T21:34:00.567Z,100130.00
2022-12-08T21:36:27.164Z,100139.53
2022-12-08T21:38:53.988Z,100136.53
2022-12-08T21:41:20.446Z,100143.44
2022-12-08T21:43:46.992Z,100140.44
2022-12-08T21:46:13.799Z,100139.88
2022-12-08T21:48:40.321Z,100137.69
2022-12-08T21:51:07.048Z,100136.22
2022-12-08T21:53:33.892Z,100143.03
2022-12-08T21:56:00.311Z,100145.09
2022-12-08T21:58:27.140Z,100147.94
2022-12-08T22:00:53.856Z,100151.03
2022-12-08T22:03:20.721Z,100151.72
2022-12-08T22:05:47.512Z,100164.03
2022-12-08T22:08:13.963Z,100156.13
2022-12-08T22:10:40.655Z,100159.28
2022-12-08T22:13:07.220Z,100149.34
2022-12-08T22:15:34.152Z,100158.72
2022-12-08T22:18:00.908Z,100156.75
2022-12-08T22:20:27.455Z,100154.81
2022-12-08T22:22:53.913Z,100160.66
2022-12-08T22:25:20.332Z,100159.25
2022-12-08T22:27:46.697Z,100156.72
2022-12-08T22:30:13.408Z,100156.03
2022-12-08T22:32:40.319Z,100158.97
2022-12-08T22:35:06.817Z,100159.69
2022-12-08T22:37:33.214Z,100161.91
2022-12-08T22:39:59.798Z,100160.41
2022-12-08T22:42:26.202Z,100165.91
2022-12-08T22:44:52.771Z,100174.41
2022-12-08T22:47:19.648Z,100170.84
2022-12-08T22:49:46.349Z,100169.78
2022-12-08T22:52:12.681Z,100168.31
2022-12-08T22:54:39.110Z,100172.00
2022-12-08T22:57:05.682Z,100168.69
2022-12-08T22:59:32.084Z,100171.31
2022-12-08T23:01:58.692Z,100176.03
2022-12-08T23:04:25.296Z,100176.13
2022-12-08T23:06:52.090Z,100172.00
2022-12-08T23:09:18.729Z,100164.00
2022-12-08T23:11:45.149Z,100164.66
2022-12-08T23:14:11.445Z,100158.28
2022-12-08T23:16:38.153Z,100160.00
2022-12-08T23:19:04.575Z,100162.44
2022-12-08T23:21:31.113Z,100157.88
2022-12-08T23:23:57.741Z,100159.19
2022-12-08T23:26:24.262Z,100147.34
2022-12-08T23:28:50.615Z,100149.25
2022-12-08T23:31:17.010Z,100150.56
2022-12-08T23:33:43.779Z,100155.59
2022-12-08T23:36:10.545Z,100155.28
2022-12-08T23:38:36.822Z,100154.47
2022-12-08T23:41:03.424Z,100152.53
2022-12-08T23:43:29.973Z,100158.94
2022-12-08T23:45:56.463Z,100158.38
2022-12-08T23:48:22.826Z,100156.16
2022-12-08T23:50:49.444Z,100157.47
2022-12-08T23:53:16.109Z,100167.44
2022-12-08T23:55:42.550Z,100164.16
2022-12-08T23:58:09.384Z,100157.38
